Saint Rocks, Vermont
Current Conditions -  °F | °C
As of 8:35 AM on Saturday 20 Dec 2014 (Local Time) from KFSO Reporting Station
Clear Clear  
Wind Chill:   Ceiling: Unl
Heat Index:   Visibility: 10mi
Dew Point:   Wind: 0mph
Humidity: 88%   Direction: NA
Pressure: 30.34"   Gusts: NA
Location:  44.8776°N, 72.9201°W
Report Text: KFSO 201335Z AUTO 00000KT 10SM CLR M14/M15 A3034 RMK AO2 T11361152
Loading
Personal Weather Stations






























Interactive Weather Map New forecast layout! Learn more

10-Day Weather Forecast

Advertisements
Track Severe Weather on mobile